Mene Grande, Venezuela
Current Conditions -  °F | °C
As of 6:00 PM on Sunday 23 Nov 2014 (Local Time) from SVMD Reporting Station
Haze Haze  
Wind Chill: 70°   Ceiling: 1700
Heat Index: 70°   Visibility: 4mi
Dew Point: 64°   Wind: 7mph
Humidity: 83%   Direction: 200°SSW
Pressure: 30.06"   Gusts: NA
Location:  9.84°N, 70.92°W
Report Text: SVMD 232200Z 20006KT 7000 VCBR BKN017 21/18 Q1018
Loading
Personal Weather Stations






























Interactive Weather Map New forecast layout! Learn more

10-Day Weather Forecast

Advertisements
Track Severe Weather on mobile